Time;durP1;ratioP1;P1;durP2;ratioP2;P2;SDS_P1;SDS_P2;PMS_P1;PMS_P2;Temp;Humidity;BMP_temperature;BMP_pressure;BME280_temperature;BME280_humidity;BME280_pressure;Samples;Min_cycle;Max_cycle;Signal;HPM_P1;HPM_P2
2023/08/15 00:02:11;;;;;;;15.60;11.50;;;;;;;19.09;100.00;99393.25;270671;1266;22570;-82
2023/08/15 00:08:15;;;;;;;14.30;12.30;;;;;;;19.08;100.00;99398.58;270094;1266;22582;-82
2023/08/15 00:14:17;;;;;;;17.00;13.00;;;;;;;19.02;100.00;99399.40;270853;1267;27613;-82
2023/08/15 00:20:19;;;;;;;16.60;12.80;;;;;;;19.00;100.00;99400.30;270739;1266;22389;-82
2023/08/15 00:26:21;;;;;;;17.20;12.00;;;;;;;18.96;100.00;99403.86;273571;1267;22432;-82
2023/08/15 00:32:22;;;;;;;17.50;12.90;;;;;;;18.88;100.00;99404.63;273586;1267;22308;-81
2023/08/15 00:38:27;;;;;;;17.50;14.70;;;;;;;18.80;100.00;99403.00;273605;1267;23523;-82
2023/08/15 00:44:29;;;;;;;17.50;12.90;;;;;;;18.70;100.00;99400.86;273498;1267;22211;-82
2023/08/15 00:50:33;;;;;;;15.90;14.10;;;;;;;18.65;100.00;99399.48;273571;1267;22193;-81
2023/08/15 00:56:35;;;;;;;17.60;12.50;;;;;;;18.63;100.00;99401.98;273062;1266;23130;-82
2023/08/15 01:02:38;;;;;;;17.60;12.00;;;;;;;18.55;100.00;99400.83;273598;1266;22214;-83
2023/08/15 01:08:41;;;;;;;12.90;11.50;;;;;;;18.42;100.00;99393.89;273447;1267;22411;-82
2023/08/15 01:14:51;;;;;;;17.20;13.00;;;;;;;18.33;100.00;99393.60;273695;1267;22303;-82
2023/08/15 01:20:55;;;;;;;16.50;12.70;;;;;;;18.29;100.00;99392.30;273587;1266;22197;-82
2023/08/15 01:26:57;;;;;;;16.90;13.00;;;;;;;18.20;100.00;99388.86;273648;1267;22219;-82
2023/08/15 01:33:08;;;;;;;14.30;12.80;;;;;;;18.10;100.00;99393.98;273602;1267;22227;-82
2023/08/15 01:39:13;;;;;;;14.00;11.80;;;;;;;18.04;100.00;99393.42;272458;1267;22212;-81
2023/08/15 01:45:15;;;;;;;16.70;11.00;;;;;;;18.00;100.00;99397.28;273548;1267;22322;-82
2023/08/15 01:51:17;;;;;;;14.80;12.60;;;;;;;18.00;100.00;99394.43;273692;1267;22391;-82
2023/08/15 01:57:21;;;;;;;15.40;12.00;;;;;;;18.05;100.00;99393.98;273641;1266;22216;-82
2023/08/15 02:03:23;;;;;;;15.20;12.40;;;;;;;18.03;100.00;99396.06;273619;1267;22364;-82
2023/08/15 02:09:25;;;;;;;17.40;13.80;;;;;;;17.99;100.00;99397.53;273626;1266;22320;-81
2023/08/15 02:15:30;;;;;;;16.10;12.70;;;;;;;17.95;100.00;99401.14;269793;1266;3337463;-83
2023/08/15 02:21:32;;;;;;;15.60;12.40;;;;;;;17.95;100.00;99398.60;270095;1267;23762;-83
2023/08/15 02:27:34;;;;;;;16.80;11.50;;;;;;;17.86;100.00;99392.54;270398;1267;25471;-82
2023/08/15 02:33:36;;;;;;;15.90;10.60;;;;;;;17.68;100.00;99395.61;270125;1267;22434;-82
2023/08/15 02:39:38;;;;;;;12.30;11.00;;;;;;;17.56;100.00;99391.94;273725;1266;22158;-83
2023/08/15 02:45:39;;;;;;;13.60;10.50;;;;;;;17.53;100.00;99392.91;273539;1267;22359;-82
2023/08/15 02:51:41;;;;;;;15.40;11.40;;;;;;;17.43;100.00;99397.27;273613;1266;22254;-83
2023/08/15 02:57:43;;;;;;;14.20;9.80;;;;;;;17.36;100.00;99404.77;273664;1266;23216;-83
2023/08/15 03:03:44;;;;;;;15.70;9.80;;;;;;;17.31;100.00;99408.84;273700;1266;22141;-83
2023/08/15 03:09:46;;;;;;;15.20;11.00;;;;;;;17.35;100.00;99409.20;273664;1266;22970;-83
2023/08/15 03:15:56;;;;;;;16.50;10.20;;;;;;;17.34;100.00;99415.14;273708;1266;22152;-83
2023/08/15 03:22:02;;;;;;;13.50;10.30;;;;;;;17.20;100.00;99416.60;273693;1266;23602;-82
2023/08/15 03:28:06;;;;;;;10.90;8.80;;;;;;;17.07;100.00;99416.95;273637;1266;22390;-83
2023/08/15 03:34:08;;;;;;;10.80;9.60;;;;;;;16.97;100.00;99417.82;273768;1266;22294;-83
2023/08/15 03:40:11;;;;;;;11.80;9.70;;;;;;;16.97;100.00;99413.16;272371;1266;22625;-83
2023/08/15 03:46:15;;;;;;;13.40;10.30;;;;;;;17.01;100.00;99413.60;270422;1266;22960;-83
2023/08/15 03:52:17;;;;;;;13.80;10.20;;;;;;;16.92;100.00;99409.33;270307;1266;22576;-83
2023/08/15 03:58:19;;;;;;;14.10;10.20;;;;;;;16.85;100.00;99410.10;271412;1266;22563;-83
2023/08/15 04:04:21;;;;;;;13.40;10.00;;;;;;;16.78;100.00;99416.86;270990;1260;22538;-83
2023/08/15 04:10:24;;;;;;;17.90;11.80;;;;;;;16.74;100.00;99419.19;271954;1260;22318;-83
2023/08/15 04:16:25;;;;;;;14.70;10.80;;;;;;;16.73;100.00;99424.17;273595;1266;22167;-84
2023/08/15 04:22:27;;;;;;;11.90;10.60;;;;;;;16.78;100.00;99420.89;273554;1266;22377;-83
2023/08/15 04:28:29;;;;;;;12.90;10.30;;;;;;;16.82;100.00;99415.33;273675;1267;23074;-83
2023/08/15 04:34:31;;;;;;;11.00;9.60;;;;;;;16.93;100.00;99419.44;273440;1267;23024;-83
2023/08/15 04:40:43;;;;;;;14.70;11.70;;;;;;;17.05;100.00;99422.98;272096;1267;22188;-83
2023/08/15 04:46:45;;;;;;;12.30;11.10;;;;;;;17.17;100.00;99424.14;270140;1267;23261;-83
2023/08/15 04:52:47;;;;;;;15.80;11.50;;;;;;;17.24;100.00;99427.31;270361;1267;23148;-82
2023/08/15 04:58:49;;;;;;;14.00;11.10;;;;;;;17.37;100.00;99432.73;269768;1267;23418;-82
2023/08/15 05:04:51;;;;;;;13.50;10.00;;;;;;;17.56;100.00;99438.36;272050;1267;22494;-83
2023/08/15 05:10:54;;;;;;;14.20;11.10;;;;;;;17.74;100.00;99439.50;273151;1266;22183;-84
2023/08/15 05:16:55;;;;;;;14.20;11.20;;;;;;;17.98;100.00;99442.88;273555;1266;22470;-84
2023/08/15 05:22:57;;;;;;;13.80;11.60;;;;;;;18.22;100.00;99441.48;273599;1262;22391;-84
2023/08/15 05:28:59;;;;;;;14.80;12.10;;;;;;;18.46;100.00;99445.23;271981;1266;22550;-84
2023/08/15 05:35:01;;;;;;;12.80;11.40;;;;;;;18.68;100.00;99447.48;273649;1266;22207;-84
2023/08/15 05:41:07;;;;;;;19.50;12.10;;;;;;;18.90;100.00;99452.92;272891;1266;22308;-84
2023/08/15 05:47:08;;;;;;;14.50;11.40;;;;;;;19.16;100.00;99456.16;273256;1267;22302;-84
2023/08/15 05:53:10;;;;;;;13.80;10.50;;;;;;;19.41;100.00;99453.23;272622;1259;22362;-85
2023/08/15 05:59:12;;;;;;;13.00;9.90;;;;;;;19.65;100.00;99453.14;273455;1267;23480;-84
2023/08/15 06:05:14;;;;;;;13.70;10.10;;;;;;;19.85;100.00;99454.52;273333;1266;22310;-84
2023/08/15 06:11:17;;;;;;;12.10;10.00;;;;;;;20.05;100.00;99456.27;273394;1267;22191;-83
2023/08/15 06:17:18;;;;;;;13.30;10.20;;;;;;;20.28;100.00;99452.64;271658;1266;24193;-83
2023/08/15 06:23:21;;;;;;;12.10;9.50;;;;;;;20.58;100.00;99443.64;271112;1267;22640;-83
2023/08/15 06:29:23;;;;;;;11.90;9.50;;;;;;;20.89;100.00;99449.55;270979;1260;23523;-82
2023/08/15 06:35:28;;;;;;;10.50;8.40;;;;;;;21.15;100.00;99449.66;273429;1267;23074;-82
2023/08/15 06:41:30;;;;;;;11.00;8.60;;;;;;;21.40;100.00;99447.98;273272;1266;22354;-82
2023/08/15 06:47:33;;;;;;;11.10;9.00;;;;;;;21.64;100.00;99444.98;273576;1266;22302;-82
2023/08/15 06:53:35;;;;;;;11.10;8.60;;;;;;;22.01;100.00;99441.31;273588;1266;22222;-83
2023/08/15 06:59:37;;;;;;;10.80;7.80;;;;;;;22.36;100.00;99447.86;273470;1267;22190;-83
2023/08/15 07:05:40;;;;;;;10.20;8.00;;;;;;;22.61;100.00;99454.63;273521;1266;22206;-83
2023/08/15 07:11:42;;;;;;;11.10;8.30;;;;;;;22.81;100.00;99458.70;273622;1267;23229;-83
2023/08/15 07:17:43;;;;;;;9.40;8.30;;;;;;;22.98;100.00;99462.41;273613;1267;22828;-82
2023/08/15 07:23:45;;;;;;;12.50;8.00;;;;;;;23.18;100.00;99462.23;273640;1266;22331;-83
2023/08/15 07:29:47;;;;;;;9.80;8.40;;;;;;;23.42;100.00;99463.55;273698;1266;22269;-82
2023/08/15 07:35:48;;;;;;;9.90;6.90;;;;;;;23.68;100.00;99460.35;273611;1266;22898;-83
2023/08/15 07:41:50;;;;;;;9.30;7.40;;;;;;;23.97;100.00;99462.36;273520;1266;22184;-82
2023/08/15 07:47:52;;;;;;;9.10;7.00;;;;;;;24.29;100.00;99461.99;273674;1266;23018;-82
2023/08/15 07:53:53;;;;;;;8.70;6.60;;;;;;;24.73;100.00;99459.78;271598;1266;22668;-81
2023/08/15 07:59:55;;;;;;;8.90;5.80;;;;;;;25.27;99.74;99457.86;269963;1266;23439;-82
2023/08/15 08:05:57;;;;;;;8.20;4.80;;;;;;;25.79;97.25;99452.23;269100;1266;25323;-82
2023/08/15 08:11:59;;;;;;;8.40;4.90;;;;;;;26.28;94.36;99448.15;273321;1251;23584;-82
2023/08/15 08:18:00;;;;;;;6.30;5.50;;;;;;;26.63;92.27;99451.09;272480;1266;23091;-82
2023/08/15 08:24:03;;;;;;;9.40;5.80;;;;;;;26.86;90.48;99449.93;273443;1266;23111;-83
2023/08/15 08:30:06;;;;;;;5.60;4.40;;;;;;;27.04;89.34;99447.38;273468;1266;22212;-83
2023/08/15 08:36:08;;;;;;;8.80;4.70;;;;;;;27.22;87.11;99454.07;272198;1266;22555;-83
2023/08/15 08:42:13;;;;;;;7.50;4.60;;;;;;;27.37;85.30;99449.63;269668;1266;25406;-82
2023/08/15 08:48:16;;;;;;;5.20;4.00;;;;;;;27.47;83.97;99450.21;269267;1267;23342;-83
2023/08/15 08:54:17;;;;;;;5.70;4.50;;;;;;;27.57;82.54;99449.41;270338;1267;22513;-82
2023/08/15 09:00:39;;;;;;;6.70;3.50;;;;;;;27.65;79.87;99446.10;269583;1267;22513;-81
2023/08/15 09:06:41;;;;;;;6.00;3.30;;;;;;;27.75;77.34;99443.12;269554;1267;22567;-82
2023/08/15 09:12:45;;;;;;;5.70;3.50;;;;;;;27.96;76.06;99439.34;270307;1266;22543;-82
2023/08/15 09:18:47;;;;;;;3.70;3.30;;;;;;;28.36;75.10;99428.18;271725;1266;23221;-83
2023/08/15 09:24:50;;;;;;;4.30;3.30;;;;;;;28.73;74.16;99420.05;273585;1266;22905;-83
2023/08/15 09:30:53;;;;;;;3.50;3.20;;;;;;;29.30;72.74;99421.48;273655;1267;23072;-83
2023/08/15 09:36:55;;;;;;;4.60;3.40;;;;;;;29.98;71.00;99417.91;272838;1256;22747;-82
2023/08/15 09:42:57;;;;;;;4.50;3.10;;;;;;;30.82;68.88;99412.63;272814;1267;23248;-83
2023/08/15 09:48:59;;;;;;;7.30;2.80;;;;;;;31.66;66.61;99408.49;273442;1267;22504;-81
2023/08/15 09:55:04;;;;;;;3.80;2.60;;;;;;;32.25;65.05;99405.95;273553;1267;22460;-82
2023/08/15 10:01:08;;;;;;;6.70;3.40;;;;;;;32.81;62.85;99394.76;271520;1267;22378;-83
2023/08/15 10:07:09;;;;;;;4.10;3.20;;;;;;;33.47;60.68;99383.09;273602;1267;22413;-83
2023/08/15 10:13:11;;;;;;;3.80;2.40;;;;;;;33.91;58.95;99374.60;273507;1257;23168;-83
2023/08/15 10:19:20;;;;;;;3.90;2.90;;;;;;;34.06;56.57;99370.45;273589;1266;22869;-81
2023/08/15 10:25:22;;;;;;;6.40;3.40;;;;;;;34.05;54.23;99362.20;273421;1266;22586;-82
2023/08/15 10:31:36;;;;;;;5.90;3.10;;;;;;;33.95;51.49;99352.59;269251;1266;23315;-82
2023/08/15 10:37:41;;;;;;;5.20;3.20;;;;;;;33.91;51.41;99348.44;269468;1267;22380;-83
2023/08/15 10:43:55;;;;;;;6.60;2.90;;;;;;;34.03;50.84;99351.20;269853;1267;22900;-84
2023/08/15 10:49:59;;;;;;;5.60;3.20;;;;;;;34.21;50.24;99347.09;269145;1267;22553;-83
2023/08/15 10:56:15;;;;;;;4.60;3.20;;;;;;;34.21;48.87;99351.13;269124;1260;22648;-81
2023/08/15 11:02:17;;;;;;;7.80;3.10;;;;;;;34.01;47.91;99356.11;272185;1266;25468;-83
2023/08/15 11:08:19;;;;;;;10.30;3.40;;;;;;;34.10;46.81;99358.64;269627;1266;22149;-83
2023/08/15 11:14:21;;;;;;;3.80;3.00;;;;;;;34.13;46.44;99359.71;269896;1266;25429;-82
2023/08/15 11:20:29;;;;;;;5.80;2.50;;;;;;;34.32;46.20;99358.58;270144;1266;23140;-82
2023/08/15 11:26:31;;;;;;;5.50;3.00;;;;;;;34.41;44.34;99356.87;270187;1266;23138;-83
2023/08/15 11:32:37;;;;;;;5.10;2.80;;;;;;;34.60;44.46;99349.79;273610;1267;23032;-81
2023/08/15 11:38:42;;;;;;;3.80;2.50;;;;;;;34.76;44.86;99342.20;269674;1266;25322;-83
2023/08/15 11:44:43;;;;;;;3.70;2.30;;;;;;;34.82;44.11;99338.07;270954;1267;22566;-82
2023/08/15 11:50:45;;;;;;;4.30;2.30;;;;;;;34.67;42.85;99339.98;270128;1266;23279;-81
2023/08/15 11:56:51;;;;;;;4.30;2.10;;;;;;;34.10;40.67;99336.13;270730;1266;23844;-83
2023/08/15 12:02:54;;;;;;;4.10;2.30;;;;;;;33.59;39.36;99326.22;270500;1266;22608;-83
2023/08/15 12:08:56;;;;;;;4.00;2.00;;;;;;;33.05;39.40;99314.25;270325;1266;22490;-83
2023/08/15 12:15:00;;;;;;;3.90;2.30;;;;;;;32.63;39.48;99306.02;271657;1267;22700;-82
2023/08/15 12:21:04;;;;;;;3.00;2.10;;;;;;;32.37;39.62;99303.20;271519;1266;22378;-83
2023/08/15 12:27:06;;;;;;;4.00;2.00;;;;;;;32.06;39.55;99306.01;273669;1256;22499;-83
2023/08/15 12:33:08;;;;;;;5.40;2.50;;;;;;;31.85;39.09;99305.55;272568;1266;22568;-83
2023/08/15 12:39:10;;;;;;;3.30;2.20;;;;;;;31.68;38.34;99301.39;270867;1266;22311;-81
2023/08/15 12:45:11;;;;;;;3.60;2.30;;;;;;;31.65;38.86;99297.89;272499;1266;22482;-82
2023/08/15 12:51:14;;;;;;;2.40;2.20;;;;;;;31.58;38.86;99292.20;269828;1267;22560;-81
2023/08/15 12:57:16;;;;;;;3.20;2.20;;;;;;;31.54;38.75;99294.56;269335;1266;25457;-83
2023/08/15 13:03:18;;;;;;;4.20;2.40;;;;;;;31.44;38.81;99299.67;270651;1267;24259;-82
2023/08/15 13:09:20;;;;;;;5.10;2.40;;;;;;;31.29;39.00;99297.50;269504;1267;24073;-83
2023/08/15 13:15:22;;;;;;;4.00;2.20;;;;;;;31.12;39.50;99299.83;270429;1262;23518;-82
2023/08/15 13:21:28;;;;;;;4.90;2.00;;;;;;;31.03;40.35;99291.98;273007;1269;23340;-82
2023/08/15 13:27:29;;;;;;;3.10;2.50;;;;;;;31.07;40.69;99282.94;270341;1269;23126;-83
2023/08/15 13:33:31;;;;;;;3.70;2.30;;;;;;;31.06;41.49;99278.63;273416;1269;22415;-83
2023/08/15 13:39:33;;;;;;;5.10;2.40;;;;;;;30.93;41.09;99276.80;273438;1269;23483;-84
2023/08/15 13:45:35;;;;;;;5.00;2.60;;;;;;;30.84;41.95;99273.52;272960;1269;22209;-83
2023/08/15 13:51:37;;;;;;;5.00;2.70;;;;;;;30.75;42.63;99268.52;273379;1268;22727;-83
2023/08/15 13:57:39;;;;;;;3.40;2.80;;;;;;;30.69;42.95;99261.19;273327;1260;23553;-84
2023/08/15 14:03:40;;;;;;;5.30;2.50;;;;;;;30.63;43.31;99261.61;273512;1268;23090;-82
2023/08/15 14:09:42;;;;;;;5.70;2.60;;;;;;;30.64;43.30;99257.61;273487;1266;22513;-82
2023/08/15 14:15:44;;;;;;;4.10;2.80;;;;;;;30.69;43.03;99250.04;273444;1266;114958;-83
2023/08/15 14:21:46;;;;;;;7.10;2.80;;;;;;;30.56;44.13;99251.09;273532;1267;23111;-83
2023/08/15 14:27:51;;;;;;;6.10;3.10;;;;;;;30.56;44.61;99251.34;273431;1267;22332;-83
2023/08/15 14:34:00;;;;;;;4.70;3.20;;;;;;;30.53;44.95;99242.65;273489;1267;23180;-83
2023/08/15 14:40:06;;;;;;;4.60;3.00;;;;;;;30.43;45.69;99234.92;273569;1267;23065;-83
2023/08/15 14:46:10;;;;;;;4.90;3.10;;;;;;;30.40;45.49;99233.98;273702;1267;22373;-83
2023/08/15 14:52:12;;;;;;;3.50;2.40;;;;;;;30.39;45.72;99234.33;273564;1267;23217;-82
2023/08/15 14:58:14;;;;;;;3.80;2.60;;;;;;;30.28;46.41;99234.56;271629;1267;23458;-82
2023/08/15 15:04:16;;;;;;;3.70;2.90;;;;;;;30.20;46.11;99227.62;273235;1267;23112;-82
2023/08/15 15:10:17;;;;;;;4.10;2.80;;;;;;;30.23;46.22;99227.65;273610;1266;22103;-83
2023/08/15 15:16:19;;;;;;;3.60;3.00;;;;;;;30.30;46.45;99227.91;273507;1267;23779;-83
2023/08/15 15:22:21;;;;;;;3.90;2.80;;;;;;;30.33;46.47;99227.94;273605;1266;22336;-82
2023/08/15 15:28:23;;;;;;;4.70;3.10;;;;;;;30.33;46.88;99226.55;273580;1267;22330;-82
2023/08/15 15:34:28;;;;;;;6.70;3.30;;;;;;;30.27;47.08;99227.84;273562;1267;23307;-83
2023/08/15 15:40:29;;;;;;;5.70;3.10;;;;;;;30.19;46.96;99220.11;273252;1267;22574;-83
2023/08/15 15:46:32;;;;;;;7.20;3.80;;;;;;;30.13;46.80;99212.71;270403;1267;22578;-81
2023/08/15 15:52:33;;;;;;;5.20;3.10;;;;;;;30.10;47.39;99206.95;269198;1267;22578;-82
2023/08/15 15:58:35;;;;;;;3.90;3.00;;;;;;;30.03;47.57;99196.47;270861;1267;23082;-83
2023/08/15 16:04:38;;;;;;;3.30;2.70;;;;;;;29.97;47.95;99192.73;272937;1266;22340;-83
2023/08/15 16:10:39;;;;;;;6.70;2.90;;;;;;;29.81;48.57;99191.02;271720;1266;22558;-83
2023/08/15 16:16:41;;;;;;;6.50;3.30;;;;;;;29.68;48.48;99190.95;269946;1266;22589;-83
2023/08/15 16:22:44;;;;;;;4.60;3.50;;;;;;;29.69;48.64;99191.93;273375;1267;23362;-83
2023/08/15 16:28:45;;;;;;;6.40;3.10;;;;;;;29.57;49.18;99190.33;273088;1266;23078;-83
2023/08/15 16:34:47;;;;;;;3.90;2.90;;;;;;;29.43;49.78;99187.31;273314;1266;22291;-83
2023/08/15 16:40:49;;;;;;;6.00;3.40;;;;;;;29.32;50.31;99185.30;265624;1266;10001732;-83
2023/08/15 16:46:50;;;;;;;5.20;3.70;;;;;;;29.22;50.92;99185.49;273534;1266;22379;-83
2023/08/15 16:52:55;;;;;;;7.80;3.90;;;;;;;29.06;51.36;99177.31;273603;1267;22143;-83
2023/08/15 16:58:57;;;;;;;5.90;4.30;;;;;;;28.88;52.12;99176.17;273543;1266;22293;-82
2023/08/15 17:04:58;;;;;;;5.80;4.00;;;;;;;28.71;52.63;99172.27;273559;1267;22296;-83
2023/08/15 17:11:00;;;;;;;7.40;4.40;;;;;;;28.54;53.33;99167.08;273562;1267;22312;-83
2023/08/15 17:17:02;;;;;;;4.70;3.20;;;;;;;28.35;54.31;99161.63;273534;1267;22345;-83
2023/08/15 17:23:04;;;;;;;6.30;3.30;;;;;;;28.13;54.99;99158.65;273558;1267;24186;-82
2023/08/15 17:29:06;;;;;;;6.50;4.00;;;;;;;27.96;55.47;99161.62;272834;1267;22312;-82
2023/08/15 17:35:08;;;;;;;7.30;3.70;;;;;;;27.78;56.64;99161.83;272701;1267;22295;-83
2023/08/15 17:41:10;;;;;;;4.70;3.60;;;;;;;27.58;57.53;99169.52;273538;1267;25321;-82
2023/08/15 17:47:12;;;;;;;7.30;4.00;;;;;;;27.37;58.28;99169.09;271900;1266;22535;-81
2023/08/15 17:53:13;;;;;;;4.10;3.50;;;;;;;27.13;59.40;99172.14;270987;1266;22600;-81
2023/08/15 17:59:15;;;;;;;7.30;4.90;;;;;;;26.89;60.19;99176.61;271845;1267;22328;-82
2023/08/15 18:05:17;;;;;;;6.40;4.00;;;;;;;26.73;61.61;99186.85;272592;1267;22190;-81
2023/08/15 18:11:19;;;;;;;5.20;4.00;;;;;;;26.55;62.75;99195.67;272448;1266;22314;-82
2023/08/15 18:17:21;;;;;;;6.50;4.60;;;;;;;26.31;63.98;99202.59;271870;1267;22353;-81
2023/08/15 18:23:23;;;;;;;13.80;4.90;;;;;;;26.04;65.43;99207.27;269932;1267;22343;-82
2023/08/15 18:29:26;;;;;;;4.70;4.20;;;;;;;25.76;66.75;99217.01;270966;1266;23234;-82
2023/08/15 18:35:27;;;;;;;6.70;4.80;;;;;;;25.37;68.00;99221.92;270041;1267;22960;-82
2023/08/15 18:41:31;;;;;;;6.90;5.10;;;;;;;24.98;69.49;99219.10;272458;1267;22311;-83
2023/08/15 18:47:33;;;;;;;8.10;5.00;;;;;;;24.63;70.59;99221.43;273621;1266;22337;-83
2023/08/15 18:53:34;;;;;;;9.20;6.50;;;;;;;24.45;72.09;99227.79;273608;1266;22881;-82
2023/08/15 18:59:36;;;;;;;9.60;6.40;;;;;;;24.41;72.95;99233.62;273608;1267;22225;-83
2023/08/15 19:05:43;;;;;;;8.40;5.10;;;;;;;24.41;74.09;99244.51;273647;1266;23237;-83
2023/08/15 19:11:48;;;;;;;10.10;5.80;;;;;;;24.36;75.38;99248.55;273507;1266;22435;-82
2023/08/15 19:17:50;;;;;;;11.20;7.10;;;;;;;24.26;75.30;99248.55;272891;1267;22574;-83
2023/08/15 19:23:52;;;;;;;12.50;6.90;;;;;;;24.16;76.06;99249.45;270397;1266;22244;-82
2023/08/15 19:29:54;;;;;;;16.80;6.60;;;;;;;24.03;77.04;99259.65;273645;1266;23070;-82
2023/08/15 19:35:55;;;;;;;9.00;6.20;;;;;;;23.93;77.71;99264.08;273711;1263;22326;-82
2023/08/15 19:41:57;;;;;;;11.40;7.10;;;;;;;23.71;78.41;99261.61;273637;1261;22392;-82
2023/08/15 19:47:59;;;;;;;11.00;6.20;;;;;;;23.48;79.21;99265.23;273642;1264;22381;-81
2023/08/15 19:54:01;;;;;;;8.30;7.30;;;;;;;23.29;80.03;99270.46;273574;1266;22845;-82
2023/08/15 20:00:04;;;;;;;10.30;7.60;;;;;;;23.14;81.00;99271.29;273616;1267;23063;-82
2023/08/15 20:06:09;;;;;;;10.00;6.60;;;;;;;23.09;82.65;99273.36;273609;1266;23090;-83
2023/08/15 20:12:11;;;;;;;9.30;5.80;;;;;;;23.02;83.57;99272.73;273620;1266;22307;-82
2023/08/15 20:18:15;;;;;;;8.00;6.10;;;;;;;22.94;84.64;99280.99;273624;1267;23873;-82
2023/08/15 20:24:17;;;;;;;9.50;6.60;;;;;;;22.89;85.28;99286.90;273609;1266;22281;-82
2023/08/15 20:30:19;;;;;;;18.40;7.20;;;;;;;22.82;85.68;99290.98;273512;1267;22330;-82
2023/08/15 20:36:21;;;;;;;8.40;6.70;;;;;;;22.67;86.42;99291.55;273648;1267;22498;-82
2023/08/15 20:42:27;;;;;;;8.50;6.50;;;;;;;22.50;86.90;99295.45;273877;1264;22200;-82
2023/08/15 20:48:29;;;;;;;17.40;8.00;;;;;;;22.30;87.60;99291.95;273498;1267;22300;-82
2023/08/15 20:54:31;;;;;;;9.20;7.60;;;;;;;22.13;88.30;99288.41;273616;1267;22189;-82
2023/08/15 21:00:33;;;;;;;9.40;7.40;;;;;;;22.00;89.26;99296.70;272117;1267;22543;-82
2023/08/15 21:06:35;;;;;;;11.10;8.40;;;;;;;21.81;89.36;99293.59;270805;1267;22594;-82
2023/08/15 21:12:37;;;;;;;13.00;8.30;;;;;;;21.58;90.42;99292.19;271966;1266;23799;-83
2023/08/15 21:18:39;;;;;;;10.80;9.00;;;;;;;21.49;91.75;99287.20;272648;1267;22539;-82
2023/08/15 21:25:20;;;;;;;15.30;8.10;;;;;;;21.49;92.37;99290.52;271358;1267;22571;-82
2023/08/15 21:31:45;;;;;;;11.40;7.90;;;;;;;21.53;93.59;99294.06;271180;1267;25300;-83
2023/08/15 21:37:47;;;;;;;12.10;8.70;;;;;;;21.48;93.75;99284.25;270449;1260;22533;-82
2023/08/15 21:43:49;;;;;;;12.50;8.20;;;;;;;21.33;94.11;99281.55;270675;1267;22494;-83
2023/08/15 21:49:54;;;;;;;9.70;8.00;;;;;;;21.23;94.90;99284.64;271987;1267;23132;-82
2023/08/15 21:55:55;;;;;;;9.60;7.50;;;;;;;21.20;95.86;99287.04;271176;1266;22206;-83
2023/08/15 22:02:16;;;;;;;9.90;7.30;;;;;;;21.24;96.34;99286.84;271278;1266;22311;-83
2023/08/15 22:08:40;;;;;;;21.10;12.90;;;;;;;21.22;96.60;99290.94;270380;1266;22520;-82
2023/08/15 22:14:42;;;;;;;8.60;7.20;;;;;;;21.15;97.23;99291.45;270042;1267;22528;-83
2023/08/15 22:20:44;;;;;;;17.50;10.10;;;;;;;21.19;98.15;99293.58;270962;1267;23904;-82
2023/08/15 22:26:46;;;;;;;10.60;8.30;;;;;;;21.15;98.03;99293.84;271534;1267;23285;-82
2023/08/15 22:32:48;;;;;;;12.30;10.60;;;;;;;21.01;98.23;99295.16;272714;1266;23643;-82
2023/08/15 22:39:11;;;;;;;14.90;10.80;;;;;;;20.87;99.29;99290.50;271521;1260;23669;-82
2023/08/15 22:45:12;;;;;;;14.80;10.30;;;;;;;20.92;100.00;99291.19;271376;1266;23809;-83
2023/08/15 22:51:14;;;;;;;13.30;10.20;;;;;;;20.93;100.00;99292.88;273436;1263;22164;-84
2023/08/15 22:57:16;;;;;;;12.90;10.00;;;;;;;20.91;100.00;99293.80;273591;1266;22251;-84
2023/08/15 23:03:18;;;;;;;11.00;8.40;;;;;;;20.84;100.00;99300.52;273483;1260;22298;-83
2023/08/15 23:09:20;;;;;;;17.50;9.80;;;;;;;20.80;100.00;99296.09;271612;1253;22577;-82
2023/08/15 23:15:21;;;;;;;11.90;9.50;;;;;;;20.75;100.00;99292.64;269445;1262;24800;-83
2023/08/15 23:21:23;;;;;;;12.60;9.90;;;;;;;20.75;100.00;99288.36;271478;1260;22543;-83
2023/08/15 23:27:25;;;;;;;12.10;10.00;;;;;;;20.76;100.00;99286.19;272746;1266;22223;-84
2023/08/15 23:33:27;;;;;;;10.60;8.70;;;;;;;20.72;100.00;99281.52;272832;1267;25563;-83
2023/08/15 23:39:29;;;;;;;14.00;9.30;;;;;;;20.61;100.00;99289.03;270612;1266;23309;-83
2023/08/15 23:45:31;;;;;;;11.40;9.10;;;;;;;20.55;100.00;99291.08;270914;1266;22578;-83
2023/08/15 23:51:33;;;;;;;11.20;9.70;;;;;;;20.53;100.00;99289.21;270529;1266;22567;-83
2023/08/15 23:57:45;;;;;;;15.10;9.20;;;;;;;20.46;100.00;99283.98;270474;1266;22546;-82
